Bristol, RI

8:58 PM EDT on August 24, 2016 (GMT -0400)
East of Town Common | | Change Station

Elev 48 ft 41.67 °N, 71.27 °W | Updated 6 seconds ago

Partly Cloudy
Partly Cloudy
71.7 °F
Feels Like 71 °F
N
0.0
Wind Variable Wind from SSE
Gusts 0.0 mph

Today
High -- | Low -- °F
--% Chance of Precip.
Yesterday
High -- | Low -- °F
Precip. -- in
Pressure 30.19 in
Visibility 10.0 miles
Clouds Few 25000 ft
Heat Index 71 °F
Dew Point 66 °F
Humidity 82%
Rainfall 0.00 in
Snow Depth Not available.
6:03 AM 7:30 PM
Waning Gibbous, 51% visible
METAR KPVD 250051Z 21006KT 10SM FEW250 22/16 A3019 RMK AO2 SLP223 T02220161
Pressure 30.19 in
Visibility 10.0 miles
Clouds Few 25000 ft
Heat Index 71 °F
Dew Point 66 °F
Humidity 82%
Rainfall 0.00 in
Snow Depth Not available.
6:03 AM 7:30 PM
Waning Gibbous, 51% visible
METAR KPVD 250051Z 21006KT 10SM FEW250 22/16 A3019 RMK AO2 SLP223 T02220161

10-Day Weather Forecast

Almanac

Astronomy

Aug. 24, 2016 Rise Set
Actual Time
Civil Twilight
Nautical Twilight
Astronomical Twilight
Moon
Length of Visible Light
Length of Day
Tomorrow will be .
, % of the Moon is Illuminated

Today's Extremes

State Highs State Lows

Community

WunderPhotos

Upload Photos

1,934,748 photos uploaded!

WunderBlog® & News

Nearby

Air Quality

  Air Quality AQ Index Pollutant
Not available.

Snow Depth

Station Depth Elevation

Earthquake Activity

City Distance Mag. Time & Date
Minimum magnitude displayed is 2.5.

Coastal Water Temperatures

Place Temperature

Stations

Nearby Weather Stations

Station Location Temp. Windchill Dew Point Humidity Wind Precip. Elev Updated Type
                   

Watches & Warnings

There are currently no watches in effect.